Time;durP1;ratioP1;P1;durP2;ratioP2;P2;SDS_P1;SDS_P2;PMS_P1;PMS_P2;Temp;Humidity;BMP_temperature;BMP_pressure;BME280_temperature;BME280_humidity;BME280_pressure;Samples;Min_cycle;Max_cycle;Signal;HPM_P1;HPM_P2
2021/07/11 00:01:43;;;;;;;12.45;5.88;;;;;;;22.37;59.19;100257.69;5045626;28;20058;-84
2021/07/11 00:04:08;;;;;;;10.52;5.68;;;;;;;22.57;58.38;100254.81;5043488;28;20151;-84
2021/07/11 00:06:37;;;;;;;9.82;5.32;;;;;;;22.78;58.06;100269.38;5050230;28;20516;-80
2021/07/11 00:09:06;;;;;;;12.35;6.10;;;;;;;22.84;57.51;100269.25;5040756;28;20025;-79
2021/07/11 00:11:33;;;;;;;15.07;5.60;;;;;;;22.89;57.28;100267.41;5048108;28;20538;-80
2021/07/11 00:14:01;;;;;;;19.67;5.47;;;;;;;22.99;56.94;100264.59;5034777;28;20025;-80
2021/07/11 00:16:28;;;;;;;12.00;6.18;;;;;;;23.07;56.29;100263.56;5050667;28;20025;-80
2021/07/11 00:18:54;;;;;;;11.70;5.07;;;;;;;23.05;56.13;100253.97;5030486;28;20049;-80
2021/07/11 00:21:20;;;;;;;11.38;4.82;;;;;;;23.09;56.00;100253.91;5046379;28;20021;-78
2021/07/11 00:23:46;;;;;;;10.30;5.13;;;;;;;23.02;55.78;100249.63;5048791;28;20032;-81
2021/07/11 00:26:11;;;;;;;11.35;5.45;;;;;;;23.01;55.88;100250.53;5064569;28;20025;-78
2021/07/11 00:28:36;;;;;;;10.35;5.80;;;;;;;23.10;55.78;100250.38;5050648;28;20051;-78
2021/07/11 00:31:02;;;;;;;12.75;5.65;;;;;;;23.31;55.27;100253.50;5050639;28;20534;-78
2021/07/11 00:33:29;;;;;;;8.65;5.70;;;;;;;23.39;54.96;100243.72;5050488;28;20484;-78
2021/07/11 00:35:55;;;;;;;10.23;5.72;;;;;;;23.45;54.88;100234.78;5037189;28;20072;-78
2021/07/11 00:38:20;;;;;;;10.85;5.22;;;;;;;23.44;55.74;100254.16;5049944;28;20519;-77
2021/07/11 00:40:47;;;;;;;9.88;5.70;;;;;;;23.40;55.96;100248.09;5050373;28;20029;-78
2021/07/11 00:43:12;;;;;;;8.95;5.72;;;;;;;23.10;56.06;100217.88;5049979;28;20021;-78
2021/07/11 00:45:38;;;;;;;15.10;6.15;;;;;;;22.99;56.47;100204.94;5032420;28;20099;-79
2021/07/11 00:48:04;;;;;;;13.27;5.80;;;;;;;23.07;56.44;100231.13;5032082;28;20481;-76
2021/07/11 00:50:31;;;;;;;12.18;5.90;;;;;;;23.04;56.51;100239.06;5051031;28;20029;-78
2021/07/11 00:52:56;;;;;;;13.27;6.10;;;;;;;23.08;56.05;100236.34;5035845;28;20032;-77
2021/07/11 00:55:23;;;;;;;15.07;6.10;;;;;;;22.98;56.44;100234.78;5053924;28;20064;-78
2021/07/11 00:57:50;;;;;;;9.57;6.43;;;;;;;22.96;56.46;100218.16;5053396;28;20036;-80
2021/07/11 01:00:16;;;;;;;14.23;6.32;;;;;;;22.75;56.26;100200.97;5053713;28;20043;-78
2021/07/11 01:03:01;;;;;;;11.95;6.05;;;;;;;22.95;56.43;100240.09;5054161;28;20484;-78
2021/07/11 01:05:29;;;;;;;13.10;6.25;;;;;;;23.03;56.43;100234.69;5062194;28;20048;-79
2021/07/11 01:08:01;;;;;;;13.57;6.43;;;;;;;23.07;55.83;100221.44;5040211;28;20021;-77
2021/07/11 01:10:31;;;;;;;11.30;6.80;;;;;;;22.94;56.47;100226.09;5052846;28;20039;-74
2021/07/11 01:12:58;;;;;;;12.65;6.93;;;;;;;22.73;56.73;100200.13;5035369;28;20029;-77
2021/07/11 01:15:24;;;;;;;18.00;6.18;;;;;;;22.59;56.87;100182.84;5052999;28;20492;-80
2021/07/11 01:17:58;;;;;;;13.70;6.40;;;;;;;22.45;57.53;100180.47;5035333;28;20021;-79
2021/07/11 01:20:50;;;;;;;12.40;6.35;;;;;;;22.64;57.37;100232.72;5035143;28;20102;-77
2021/07/11 01:23:44;;;;;;;11.60;6.40;;;;;;;22.50;58.44;100224.22;5049785;28;20033;-83
2021/07/11 01:26:13;;;;;;;11.68;6.63;;;;;;;22.39;58.54;100216.50;5013949;28;20057;-82
2021/07/11 01:28:40;;;;;;;11.77;6.75;;;;;;;22.34;58.27;100213.88;5030758;28;20139;-78
2021/07/11 01:31:06;;;;;;;13.32;6.57;;;;;;;22.41;58.64;100210.31;5030623;28;20588;-78
2021/07/11 01:33:36;;;;;;;10.48;6.70;;;;;;;22.41;58.57;100219.97;5030366;28;20133;-78
2021/07/11 01:36:03;;;;;;;11.05;6.28;;;;;;;22.04;58.18;100174.03;5031038;28;20033;-77
2021/07/11 01:38:29;;;;;;;14.82;6.88;;;;;;;22.12;58.24;100194.97;5030643;28;20041;-79
2021/07/11 01:40:55;;;;;;;10.80;6.70;;;;;;;22.27;58.09;100226.28;5013739;28;20022;-76
2021/07/11 01:43:22;;;;;;;9.18;6.15;;;;;;;22.20;57.61;100218.50;5030727;28;20095;-76
2021/07/11 01:45:50;;;;;;;11.05;6.00;;;;;;;22.14;56.96;100225.59;5030315;28;20542;-77
2021/07/11 01:48:16;;;;;;;9.80;5.85;;;;;;;21.88;58.06;100225.97;5013025;28;20083;-78
2021/07/11 01:50:43;;;;;;;9.32;5.68;;;;;;;21.78;58.86;100234.84;5029682;28;20487;-79
2021/07/11 01:53:10;;;;;;;10.07;6.07;;;;;;;21.64;59.32;100235.91;5028321;28;20041;-77
2021/07/11 01:55:36;;;;;;;9.90;6.57;;;;;;;20.99;61.14;100227.84;5028047;28;20033;-78
2021/07/11 01:58:03;;;;;;;11.75;6.75;;;;;;;21.17;60.44;100232.03;5029662;28;20370;-77
2021/07/11 02:00:29;;;;;;;10.57;6.10;;;;;;;21.23;60.48;100239.84;5027704;28;20195;-76
2021/07/11 02:02:54;;;;;;;10.05;6.30;;;;;;;20.99;60.93;100227.84;5042384;28;20041;-76
2021/07/11 02:05:20;;;;;;;11.25;5.80;;;;;;;21.03;60.89;100232.19;5072104;28;20027;-74
2021/07/11 02:07:46;;;;;;;9.23;5.47;;;;;;;21.04;60.38;100241.78;5071551;28;20020;-80
2021/07/11 02:10:14;;;;;;;11.63;5.97;;;;;;;21.21;59.94;100238.13;5053868;28;20052;-77
2021/07/11 02:13:13;;;;;;;11.93;6.32;;;;;;;21.36;59.78;100243.22;5072287;28;20090;-79
2021/07/11 02:15:47;;;;;;;13.05;6.45;;;;;;;21.24;59.95;100232.84;4988586;28;20112;-77
2021/07/11 02:18:17;;;;;;;13.10;7.50;;;;;;;21.17;60.18;100243.41;4990405;28;20117;-76
2021/07/11 02:20:47;;;;;;;10.70;6.15;;;;;;;20.74;61.60;100243.81;4990327;28;20035;-76
2021/07/11 02:23:13;;;;;;;9.95;5.65;;;;;;;20.80;62.08;100241.16;4990087;28;20034;-76
2021/07/11 02:25:39;;;;;;;9.45;6.15;;;;;;;20.79;61.02;100244.66;4990512;28;20074;-78
2021/07/11 02:28:06;;;;;;;11.90;7.07;;;;;;;20.99;60.36;100233.09;4990453;28;20022;-76
2021/07/11 02:30:40;;;;;;;18.33;7.10;;;;;;;20.80;61.05;100235.91;4990317;28;20490;-79
2021/07/11 02:33:12;;;;;;;12.20;6.18;;;;;;;20.86;60.76;100232.38;4973952;28;20525;-77
2021/07/11 02:35:43;;;;;;;11.05;5.60;;;;;;;20.99;60.02;100239.22;4988134;28;20561;-77
2021/07/11 02:38:09;;;;;;;10.70;5.90;;;;;;;21.07;59.76;100244.41;4990260;28;20046;-76
2021/07/11 02:40:35;;;;;;;11.15;6.13;;;;;;;21.05;59.70;100247.91;4990176;28;20023;-76
2021/07/11 02:43:12;;;;;;;11.25;6.10;;;;;;;20.98;60.37;100242.72;4990144;28;20026;-78
2021/07/11 02:45:41;;;;;;;14.13;6.43;;;;;;;20.67;61.27;100235.13;4987985;28;20526;-81
2021/07/11 02:48:08;;;;;;;15.13;6.03;;;;;;;20.76;60.96;100247.31;4973904;28;20033;-79
2021/07/11 02:50:34;;;;;;;9.77;5.90;;;;;;;20.80;60.93;100258.66;4973445;28;20038;-77
2021/07/11 02:53:02;;;;;;;12.65;5.95;;;;;;;20.68;60.63;100246.47;5048748;28;20032;-77
2021/07/11 02:55:32;;;;;;;14.07;6.55;;;;;;;20.78;60.27;100257.78;5071601;28;20521;-80
2021/07/11 02:58:03;;;;;;;12.15;6.10;;;;;;;20.83;59.90;100259.47;5053591;28;20050;-78
2021/07/11 03:00:29;;;;;;;13.13;6.40;;;;;;;20.82;59.65;100244.63;5068005;28;20211;-78
2021/07/11 03:02:56;;;;;;;15.98;5.95;;;;;;;20.89;59.95;100248.06;5002838;28;20045;-79
2021/07/11 03:05:24;;;;;;;15.25;5.80;;;;;;;20.96;60.06;100256.72;4985621;28;20034;-78
2021/07/11 03:07:51;;;;;;;9.43;5.50;;;;;;;20.88;59.82;100241.06;5008372;28;20088;-78
2021/07/11 03:10:17;;;;;;;14.95;6.68;;;;;;;20.81;60.05;100256.00;5008241;28;20029;-77
2021/07/11 03:12:48;;;;;;;10.30;5.85;;;;;;;20.75;60.67;100269.19;4991725;28;20440;-77
2021/07/11 03:15:14;;;;;;;8.82;6.13;;;;;;;20.52;60.20;100235.22;4991951;28;20026;-78
2021/07/11 03:17:41;;;;;;;13.30;6.28;;;;;;;20.58;60.41;100269.25;4992370;28;20038;-78
2021/07/11 03:20:09;;;;;;;13.57;5.90;;;;;;;20.65;60.39;100283.22;5009702;28;20120;-78
2021/07/11 03:22:36;;;;;;;11.73;6.10;;;;;;;20.73;60.06;100268.31;4993169;28;20037;-79
2021/07/11 03:25:09;;;;;;;9.30;6.13;;;;;;;20.81;60.05;100273.47;5009712;28;20040;-78
2021/07/11 03:27:35;;;;;;;10.30;6.20;;;;;;;20.79;60.30;100270.03;4989481;28;20803;-78
2021/07/11 03:30:13;;;;;;;14.40;5.88;;;;;;;20.88;60.19;100279.56;4989682;28;20120;-79
2021/07/11 03:32:41;;;;;;;11.07;6.20;;;;;;;20.81;60.31;100282.25;4989208;28;20077;-78
2021/07/11 03:35:08;;;;;;;10.02;5.88;;;;;;;20.79;60.68;100275.28;5048775;28;20039;-78
2021/07/11 03:37:40;;;;;;;8.75;6.07;;;;;;;20.84;60.42;100274.34;5029499;28;20037;-79
2021/07/11 03:40:07;;;;;;;9.38;5.90;;;;;;;20.81;60.73;100277.00;5031833;28;20021;-76
2021/07/11 03:42:38;;;;;;;9.77;6.50;;;;;;;20.69;61.11;100258.69;5045752;28;20040;-79
2021/07/11 03:45:05;;;;;;;11.35;6.55;;;;;;;20.62;61.56;100271.00;5031742;28;20585;-78
2021/07/11 03:47:42;;;;;;;9.73;6.22;;;;;;;20.69;61.38;100277.91;5031720;28;20512;-78
2021/07/11 03:50:09;;;;;;;9.75;6.65;;;;;;;20.64;61.89;100271.84;5008365;28;20527;-78
2021/07/11 03:52:44;;;;;;;11.70;5.95;;;;;;;20.61;61.99;100273.63;5008028;28;20037;-76
2021/07/11 03:55:10;;;;;;;9.95;6.65;;;;;;;20.64;62.28;100268.38;5009730;28;20033;-78
2021/07/11 03:57:37;;;;;;;8.60;6.35;;;;;;;20.55;63.01;100276.28;5011768;28;20037;-76
2021/07/11 04:00:04;;;;;;;9.38;6.30;;;;;;;20.52;62.72;100256.19;5029730;28;20037;-80
2021/07/11 04:02:32;;;;;;;14.45;7.18;;;;;;;20.54;62.48;100262.31;5029030;28;20029;-78
2021/07/11 04:04:59;;;;;;;9.30;7.15;;;;;;;20.63;62.29;100264.84;5028486;28;20041;-77
2021/07/11 04:07:26;;;;;;;13.93;7.60;;;;;;;20.45;62.98;100272.84;5028252;28;20026;-78
2021/07/11 04:09:54;;;;;;;13.07;6.78;;;;;;;20.45;63.28;100275.47;5029762;28;20112;-78
2021/07/11 04:12:19;;;;;;;15.73;6.90;;;;;;;20.40;63.27;100266.78;5031111;28;20111;-76
2021/07/11 04:14:45;;;;;;;9.30;6.70;;;;;;;20.39;63.69;100275.50;5028989;28;20105;-77
2021/07/11 04:17:12;;;;;;;14.15;7.10;;;;;;;20.35;63.40;100245.84;5029538;28;20029;-77
2021/07/11 04:19:42;;;;;;;13.00;7.25;;;;;;;20.55;62.91;100284.16;5028103;28;20558;-81
2021/07/11 04:22:12;;;;;;;14.77;6.80;;;;;;;20.42;63.59;100284.22;5047809;28;20037;-78
2021/07/11 04:24:39;;;;;;;8.85;6.78;;;;;;;20.35;63.69;100251.97;5033284;28;20033;-77
2021/07/11 04:27:05;;;;;;;11.23;6.88;;;;;;;20.47;64.29;100289.47;5055774;28;20059;-78
2021/07/11 04:29:33;;;;;;;10.95;6.72;;;;;;;20.42;64.48;100280.75;5039101;28;20021;-76
2021/07/11 04:32:00;;;;;;;11.65;7.70;;;;;;;20.16;65.40;100282.66;5055231;28;20033;-76
2021/07/11 04:34:27;;;;;;;8.00;6.93;;;;;;;20.12;65.83;100288.78;5055612;28;20081;-78
2021/07/11 04:36:55;;;;;;;12.32;7.65;;;;;;;19.93;67.05;100293.25;5036042;28;20060;-78
2021/07/11 04:39:21;;;;;;;9.10;7.22;;;;;;;19.94;67.12;100297.63;5054148;28;20021;-77
2021/07/11 04:41:47;;;;;;;10.55;7.05;;;;;;;20.07;66.74;100282.69;5054152;28;20541;-77
2021/07/11 04:44:12;;;;;;;11.77;7.43;;;;;;;20.04;66.84;100274.88;5054294;28;20029;-79
2021/07/11 04:46:38;;;;;;;14.02;7.45;;;;;;;20.06;66.55;100273.09;5054647;28;20029;-79
2021/07/11 04:49:05;;;;;;;16.05;7.43;;;;;;;20.25;66.02;100279.13;5053394;28;20457;-76
2021/07/11 04:51:31;;;;;;;10.20;6.85;;;;;;;20.31;66.29;100271.22;5037781;28;20043;-76
2021/07/11 04:53:56;;;;;;;11.55;7.10;;;;;;;20.45;66.25;100291.22;5050221;28;20503;-77
2021/07/11 04:56:22;;;;;;;9.85;7.30;;;;;;;20.37;66.04;100254.56;5055565;28;20100;-78
2021/07/11 04:58:48;;;;;;;12.70;7.75;;;;;;;20.57;66.06;100266.66;5053748;28;20022;-77
2021/07/11 05:01:13;;;;;;;14.75;7.97;;;;;;;20.72;65.06;100276.19;5049190;28;20044;-80
2021/07/11 05:03:38;;;;;;;13.30;7.00;;;;;;;20.77;65.10;100270.03;5060812;28;20128;-79
2021/07/11 05:06:04;;;;;;;10.50;7.18;;;;;;;20.96;64.76;100273.38;5070290;28;20021;-77
2021/07/11 05:08:29;;;;;;;16.45;6.82;;;;;;;20.84;64.27;100227.09;5071034;28;20032;-78
2021/07/11 05:10:55;;;;;;;12.77;7.20;;;;;;;21.26;64.00;100268.72;5072375;28;20016;-78
2021/07/11 05:13:20;;;;;;;12.77;6.95;;;;;;;21.35;64.19;100270.38;5072915;28;20498;-75
2021/07/11 05:15:46;;;;;;;13.23;7.55;;;;;;;21.53;63.25;100264.03;5072800;28;20029;-77
2021/07/11 05:18:11;;;;;;;11.60;6.80;;;;;;;21.75;62.72;100272.56;5057438;28;20025;-78
2021/07/11 05:20:37;;;;;;;9.38;7.15;;;;;;;21.81;62.88;100277.72;5062643;28;20041;-80
2021/07/11 05:23:02;;;;;;;12.23;6.82;;;;;;;21.90;62.28;100270.63;5043379;28;20116;-80
2021/07/11 05:25:32;;;;;;;10.38;6.90;;;;;;;22.04;62.25;100273.94;5067628;28;20028;-78
2021/07/11 05:27:59;;;;;;;10.10;6.65;;;;;;;22.18;61.89;100265.88;5044991;28;20534;-79
2021/07/11 05:30:26;;;;;;;11.32;6.97;;;;;;;22.26;61.39;100258.72;5047262;28;20476;-83
2021/07/11 05:32:52;;;;;;;10.75;6.75;;;;;;;22.38;62.06;100267.34;5066142;28;20029;-78
2021/07/11 05:35:17;;;;;;;13.75;6.95;;;;;;;22.41;62.30;100268.19;5070966;28;20039;-79
2021/07/11 05:37:43;;;;;;;14.45;7.35;;;;;;;22.51;61.58;100265.41;5071560;28;20110;-79
2021/07/11 05:40:09;;;;;;;13.10;6.63;;;;;;;22.62;60.00;100263.47;5054286;28;20418;-76
2021/07/11 05:42:34;;;;;;;10.25;6.90;;;;;;;22.76;58.86;100265.88;5044083;28;20040;-78
2021/07/11 05:45:00;;;;;;;10.13;6.68;;;;;;;22.81;59.08;100265.81;5035049;28;20040;-76
2021/07/11 05:47:26;;;;;;;14.07;6.55;;;;;;;22.78;58.56;100264.97;5056785;28;20021;-76
2021/07/11 05:49:52;;;;;;;8.20;6.28;;;;;;;22.86;58.01;100263.97;5060648;28;20028;-75
2021/07/11 05:52:17;;;;;;;10.00;6.53;;;;;;;22.77;58.03;100236.03;5055463;28;20025;-75
2021/07/11 05:54:43;;;;;;;11.50;6.90;;;;;;;23.03;59.45;100267.16;5053941;28;20031;-77
2021/07/11 05:57:08;;;;;;;8.55;6.05;;;;;;;23.13;59.19;100261.72;5058981;28;20495;-78
2021/07/11 05:59:34;;;;;;;9.95;6.78;;;;;;;22.91;58.10;100220.00;5057452;28;20548;-75
2021/07/11 06:01:59;;;;;;;10.25;6.38;;;;;;;23.21;58.33;100252.81;5057198;28;20013;-76
2021/07/11 06:04:24;;;;;;;8.75;6.45;;;;;;;23.10;58.56;100221.41;5036424;28;20512;-76
2021/07/11 06:06:50;;;;;;;11.85;6.78;;;;;;;23.35;58.85;100241.16;5017118;28;20062;-76
2021/07/11 06:09:15;;;;;;;11.75;6.75;;;;;;;23.50;57.42;100253.16;5032195;28;20025;-80
2021/07/11 06:11:41;;;;;;;8.27;5.88;;;;;;;23.67;57.46;100260.72;5034017;28;20029;-75
2021/07/11 06:14:07;;;;;;;10.80;6.13;;;;;;;23.73;56.04;100265.88;5039216;28;20366;-76
2021/07/11 06:16:33;;;;;;;11.40;6.03;;;;;;;23.87;55.23;100239.22;5035509;28;20034;-79
2021/07/11 06:18:59;;;;;;;13.18;6.07;;;;;;;24.08;55.42;100260.78;5037214;28;20029;-80
2021/07/11 06:21:25;;;;;;;11.57;5.95;;;;;;;24.17;54.43;100248.22;5015980;28;20021;-78
2021/07/11 06:23:50;;;;;;;10.07;6.28;;;;;;;24.30;54.17;100242.66;5044980;28;20094;-78
2021/07/11 06:26:16;;;;;;;13.52;7.05;;;;;;;24.45;56.38;100252.00;5034786;28;20025;-76
2021/07/11 06:28:41;;;;;;;13.68;8.52;;;;;;;24.37;56.36;100233.72;5018300;28;20037;-76
2021/07/11 06:31:07;;;;;;;11.80;7.53;;;;;;;24.55;54.89;100240.31;5036910;28;20562;-76
2021/07/11 06:33:32;;;;;;;10.07;6.93;;;;;;;24.53;55.73;100242.13;5037661;28;20167;-75
2021/07/11 06:35:58;;;;;;;9.68;6.70;;;;;;;24.59;55.21;100239.34;5040362;28;20108;-77
2021/07/11 06:38:23;;;;;;;9.63;6.13;;;;;;;24.70;54.86;100232.03;5038148;28;20526;-77
2021/07/11 06:40:49;;;;;;;8.07;6.25;;;;;;;24.66;54.35;100237.44;5036103;28;20024;-78
2021/07/11 06:43:15;;;;;;;7.93;6.20;;;;;;;24.64;56.81;100221.59;5037504;28;20021;-78
2021/07/11 06:45:42;;;;;;;11.13;5.90;;;;;;;24.81;54.69;100239.69;5013272;28;20036;-76
2021/07/11 06:48:08;;;;;;;9.48;5.75;;;;;;;24.84;54.42;100234.31;5016347;28;20121;-77
2021/07/11 06:50:33;;;;;;;9.68;5.88;;;;;;;24.92;56.20;100233.25;5013595;28;20124;-78
2021/07/11 06:52:59;;;;;;;8.57;5.63;;;;;;;24.82;57.15;100200.94;5038219;28;20029;-79
2021/07/11 07:42:21;;;;;;;10.18;5.45;;;;;;;26.80;46.95;100224.16;5031505;28;20092;-79
2021/07/11 07:44:48;;;;;;;7.47;4.55;;;;;;;26.71;47.27;100196.19;5036002;28;20513;-80
2021/07/11 07:47:15;;;;;;;9.45;5.35;;;;;;;26.98;47.76;100209.41;5019915;28;20172;-80
2021/07/11 07:49:41;;;;;;;10.77;4.93;;;;;;;27.22;46.12;100214.75;5013397;28;20033;-79
2021/07/11 07:52:06;;;;;;;10.95;4.97;;;;;;;27.37;46.11;100219.47;5013602;28;20511;-79
2021/07/11 07:54:32;;;;;;;9.32;5.18;;;;;;;27.36;48.20;100220.38;5031004;28;20725;-80
2021/07/11 07:56:57;;;;;;;7.43;4.80;;;;;;;27.34;46.58;100224.91;5037713;28;20496;-78
2021/07/11 07:59:23;;;;;;;6.78;5.13;;;;;;;27.53;46.34;100222.47;5043883;28;20025;-80
2021/07/11 08:01:49;;;;;;;7.55;5.13;;;;;;;27.61;47.62;100227.47;5055001;28;20029;-81
2021/07/11 08:04:14;;;;;;;9.35;5.65;;;;;;;27.79;49.27;100220.59;5054925;28;20564;-80
2021/07/11 08:06:39;;;;;;;9.45;5.20;;;;;;;27.62;48.32;100192.06;5054339;28;20027;-80
2021/07/11 08:09:06;;;;;;;7.40;5.10;;;;;;;27.81;43.05;100197.50;5050106;28;20053;-80
2021/07/11 08:11:33;;;;;;;28.13;6.97;;;;;;;28.04;46.52;100211.72;5054727;28;20071;-78
2021/07/11 08:13:59;;;;;;;13.43;6.03;;;;;;;28.02;47.59;100214.38;5044657;28;20020;-81
2021/07/11 08:16:24;;;;;;;9.50;5.32;;;;;;;28.14;47.66;100213.06;5044795;28;20021;-79
2021/07/11 08:18:50;;;;;;;7.90;5.85;;;;;;;28.04;45.96;100215.22;5054092;28;20460;-78
2021/07/11 08:21:16;;;;;;;9.10;5.40;;;;;;;28.20;43.83;100219.91;5054208;28;20029;-79
2021/07/11 08:23:41;;;;;;;12.85;5.40;;;;;;;28.27;47.52;100223.19;5053880;28;20490;-77
2021/07/11 08:26:07;;;;;;;15.90;6.10;;;;;;;28.43;42.03;100211.00;5044538;28;20116;-78
2021/07/11 08:28:32;;;;;;;7.45;5.28;;;;;;;28.61;41.27;100211.16;5052481;28;20033;-82
2021/07/11 08:30:58;;;;;;;9.93;5.57;;;;;;;28.74;41.49;100207.09;5054215;28;20056;-81
2021/07/11 08:33:23;;;;;;;11.68;6.28;;;;;;;28.88;42.91;100211.78;5043053;28;20025;-80
2021/07/11 08:35:49;;;;;;;8.90;5.63;;;;;;;28.97;41.98;100215.84;5041375;28;20041;-79
2021/07/11 08:38:14;;;;;;;14.00;6.53;;;;;;;29.08;40.43;100208.25;5036113;28;20468;-77
2021/07/11 08:40:40;;;;;;;9.82;5.95;;;;;;;29.12;40.06;100209.84;5056939;28;20044;-79
2021/07/11 08:43:07;;;;;;;13.27;6.13;;;;;;;29.12;39.73;100209.84;5053158;28;20085;-79
2021/07/11 08:45:36;;;;;;;11.20;6.43;;;;;;;28.89;39.56;100182.50;5054628;28;20017;-80
2021/07/11 08:48:02;;;;;;;13.25;6.07;;;;;;;29.06;40.74;100199.50;5054276;28;20087;-80
2021/07/11 08:50:32;;;;;;;10.88;6.53;;;;;;;29.11;40.08;100197.50;5053036;28;20116;-79
2021/07/11 08:52:58;;;;;;;9.63;5.70;;;;;;;29.23;42.26;100208.50;5052579;28;20040;-80
2021/07/11 08:55:26;;;;;;;10.27;5.50;;;;;;;29.21;41.53;100198.81;5054721;28;20108;-80
2021/07/11 08:57:55;;;;;;;13.85;6.05;;;;;;;29.08;43.58;100167.53;5054322;28;20025;-80
2021/07/11 09:00:23;;;;;;;;;;;;;;;29.24;40.26;100192.47;5054568;28;20037;-80
2021/07/11 09:02:48;;;;;;;12.88;5.88;;;;;;;29.43;39.61;100203.16;5052619;28;19919;-80
2021/07/11 09:05:52;;;;;;;16.05;7.28;;;;;;;29.65;39.17;100195.06;5052424;28;20108;-83
2021/07/11 09:08:24;;;;;;;13.48;6.97;;;;;;;29.91;41.02;100197.44;5044701;28;20041;-83
2021/07/11 09:10:57;;;;;;;14.15;6.70;;;;;;;29.74;40.24;100184.91;5035888;28;20029;-83
2021/07/11 09:13:28;;;;;;;12.68;6.43;;;;;;;29.76;39.47;100178.59;5014856;28;20033;-80
2021/07/11 09:15:58;;;;;;;15.98;6.13;;;;;;;29.96;38.79;100180.31;5031370;28;20440;-79
2021/07/11 09:18:32;;;;;;;11.20;6.53;;;;;;;30.17;42.29;100185.53;5031357;28;20186;-81
2021/07/11 09:21:02;;;;;;;9.32;6.13;;;;;;;30.31;39.35;100183.03;5031279;28;20413;-78
2021/07/11 09:23:31;;;;;;;8.00;5.65;;;;;;;30.18;41.19;100172.13;5014347;28;20033;-80
2021/07/11 09:25:59;;;;;;;11.38;6.45;;;;;;;30.14;41.53;100159.91;5031135;28;20112;-79
2021/07/11 09:28:26;;;;;;;9.20;5.40;;;;;;;30.50;37.25;100179.47;5031294;28;20168;-81
2021/07/11 09:31:06;;;;;;;10.07;6.20;;;;;;;30.48;38.52;100175.97;5031366;28;20052;-80
2021/07/11 09:33:32;;;;;;;9.70;6.00;;;;;;;30.27;40.20;100172.59;5031069;28;20629;-80
2021/07/11 09:36:06;;;;;;;14.02;5.40;;;;;;;30.19;37.74;100172.97;5031065;28;20028;-79
2021/07/11 09:38:32;;;;;;;11.90;5.70;;;;;;;30.03;41.22;100162.22;5027411;28;20041;-80
2021/07/11 09:40:58;;;;;;;9.43;6.10;;;;;;;29.81;40.33;100170.41;5030646;28;20057;-81
2021/07/11 09:43:23;;;;;;;8.02;5.40;;;;;;;29.88;39.07;100150.50;5031406;28;20044;-80
2021/07/11 09:45:49;;;;;;;11.07;6.20;;;;;;;29.98;38.61;100158.94;5033143;28;20034;-79
2021/07/11 09:48:35;;;;;;;7.10;5.53;;;;;;;30.04;39.65;100163.97;5030831;28;20610;-79
2021/07/11 09:51:12;;;;;;;9.13;5.72;;;;;;;30.02;37.92;100140.09;5030697;28;20041;-80
2021/07/11 09:53:40;;;;;;;9.43;6.13;;;;;;;30.51;37.68;100162.53;5014251;28;20567;-80
2021/07/11 09:56:06;;;;;;;13.27;7.50;;;;;;;30.81;38.00;100157.41;5040243;28;20042;-80
2021/07/11 09:58:33;;;;;;;18.58;7.88;;;;;;;30.77;38.47;100157.69;5050381;28;20439;-80
2021/07/11 10:00:58;;;;;;;18.80;7.50;;;;;;;30.85;39.38;100160.78;5050471;28;20037;-80
2021/07/11 10:03:24;;;;;;;12.90;6.63;;;;;;;30.91;39.15;100163.13;5033906;28;20036;-80
2021/07/11 10:05:50;;;;;;;13.20;7.07;;;;;;;31.04;38.55;100149.13;5033832;28;20099;-81
2021/07/11 10:08:15;;;;;;;11.25;6.75;;;;;;;30.88;39.90;100152.63;5033548;28;20496;-80
2021/07/11 10:10:42;;;;;;;10.77;5.88;;;;;;;30.95;38.06;100147.81;5050298;28;20037;-79
2021/07/11 10:13:08;;;;;;;9.18;6.80;;;;;;;31.02;39.88;100156.34;5048942;28;20022;-79
2021/07/11 10:15:36;;;;;;;8.38;7.50;;;;;;;31.32;39.95;100155.66;5036005;28;20123;-79
2021/07/11 10:18:05;;;;;;;13.13;7.90;;;;;;;31.55;38.08;100157.91;5036926;28;20495;-78
2021/07/11 10:20:37;;;;;;;17.83;8.13;;;;;;;31.49;37.77;100120.06;5033952;28;20554;-78
2021/07/11 10:23:04;;;;;;;12.40;7.15;;;;;;;31.91;36.19;100150.63;5051304;28;20024;-77
2021/07/11 10:25:56;;;;;;;12.13;7.43;;;;;;;32.15;35.97;100145.69;5014535;28;20038;-78
2021/07/11 10:28:25;;;;;;;11.02;7.13;;;;;;;32.30;35.10;100149.28;5012955;28;20046;-80
2021/07/11 10:30:51;;;;;;;10.52;7.35;;;;;;;32.42;33.55;100132.50;5010089;28;20050;-81
2021/07/11 10:33:19;;;;;;;13.70;8.13;;;;;;;32.59;34.42;100133.31;5002705;28;20535;-78
2021/07/11 10:35:59;;;;;;;10.70;7.10;;;;;;;32.65;34.21;100140.97;5002071;28;20030;-81
2021/07/11 10:38:27;;;;;;;12.50;7.55;;;;;;;32.56;34.89;100128.13;5006035;28;20030;-78
2021/07/11 10:41:13;;;;;;;10.35;6.97;;;;;;;32.52;34.08;100126.63;5018999;28;20512;-80
2021/07/11 10:43:40;;;;;;;10.65;7.50;;;;;;;32.37;33.79;100126.56;5027917;28;20091;-79
2021/07/11 10:46:06;;;;;;;8.93;7.40;;;;;;;32.58;33.48;100124.41;5027815;28;20052;-79
2021/07/11 10:48:31;;;;;;;9.70;6.97;;;;;;;32.45;33.64;100119.91;5029419;28;20025;-80
2021/07/11 10:50:58;;;;;;;10.77;6.68;;;;;;;32.72;33.21;100122.72;5029025;28;20048;-79
2021/07/11 10:53:29;;;;;;;9.48;6.45;;;;;;;33.11;32.57;100118.56;5012659;28;20064;-80
2021/07/11 10:55:54;;;;;;;9.75;6.75;;;;;;;33.29;31.54;100097.81;5015184;28;20046;-79
2021/07/11 10:58:21;;;;;;;11.25;6.97;;;;;;;33.17;30.76;100111.94;5049389;28;20142;-80
2021/07/11 11:00:48;;;;;;;8.85;6.35;;;;;;;33.25;31.13;100111.44;5051949;28;20041;-80
2021/07/11 11:03:18;;;;;;;8.10;6.25;;;;;;;32.97;33.21;100073.09;5051905;28;20031;-81
2021/07/11 11:05:44;;;;;;;10.05;6.85;;;;;;;33.37;32.77;100097.31;5051059;28;20032;-80
2021/07/11 11:08:11;;;;;;;11.32;6.75;;;;;;;33.52;35.42;100098.13;5050354;28;20032;-80
2021/07/11 11:10:38;;;;;;;9.70;6.53;;;;;;;33.43;31.70;100094.25;5050900;28;20025;-78
2021/07/11 11:13:08;;;;;;;10.68;6.45;;;;;;;32.87;32.41;100025.53;5049762;28;20483;-79
2021/07/11 11:15:40;;;;;;;11.35;6.30;;;;;;;32.97;32.62;100081.13;5049525;28;20016;-79
2021/07/11 11:18:40;;;;;;;9.00;6.40;;;;;;;32.83;33.13;100080.16;5049875;28;20021;-80
2021/07/11 11:21:07;;;;;;;11.75;6.05;;;;;;;32.85;33.16;100075.59;5003974;28;20033;-79
2021/07/11 11:23:39;;;;;;;8.93;6.40;;;;;;;32.92;33.77;100076.06;5001296;28;20108;-81
2021/07/11 11:26:06;;;;;;;9.38;6.38;;;;;;;32.97;34.54;100065.91;5017911;28;20025;-80
2021/07/11 11:28:37;;;;;;;14.95;6.20;;;;;;;32.58;32.82;100057.59;5018056;28;20044;-80
2021/07/11 11:31:18;;;;;;;7.78;6.15;;;;;;;31.95;32.73;100061.38;5020930;28;20064;-81
2021/07/11 11:33:49;;;;;;;12.15;6.60;;;;;;;31.69;34.04;100063.78;5016639;28;20098;-77
2021/07/11 11:36:23;;;;;;;14.95;6.15;;;;;;;31.87;33.80;100056.50;5033998;28;20025;-79
2021/07/11 11:38:50;;;;;;;7.97;6.40;;;;;;;32.23;34.26;100057.97;5017100;28;20052;-78
2021/07/11 11:41:18;;;;;;;10.23;6.57;;;;;;;32.80;33.50;100060.78;4984651;28;20426;-77
2021/07/11 11:43:44;;;;;;;13.70;5.38;;;;;;;33.21;32.59;100043.91;4994083;28;20034;-79
2021/07/11 11:46:21;;;;;;;9.80;6.25;;;;;;;33.46;33.36;100048.56;4995954;28;20181;-78
2021/07/11 11:48:56;;;;;;;8.75;6.38;;;;;;;33.13;31.55;99982.06;4973215;28;20042;-78
2021/07/11 11:51:23;;;;;;;10.02;6.32;;;;;;;33.26;32.69;100003.50;4972589;28;20038;-80
2021/07/11 11:53:48;;;;;;;9.25;6.30;;;;;;;33.73;31.04;100028.09;4988715;28;20030;-81
2021/07/11 11:56:14;;;;;;;12.35;6.47;;;;;;;33.86;32.47;100032.53;5000013;28;20064;-78
2021/07/11 11:58:41;;;;;;;10.75;6.05;;;;;;;33.84;30.67;100020.22;5041169;28;20428;-81
2021/07/11 12:01:11;;;;;;;9.07;5.82;;;;;;;33.98;29.24;99996.03;5032810;28;20037;-81
2021/07/11 12:03:38;;;;;;;8.30;6.15;;;;;;;33.75;29.04;100015.44;5032988;28;20025;-82
2021/07/11 12:06:05;;;;;;;8.68;5.78;;;;;;;33.64;30.24;100022.38;5032816;28;20033;-81
2021/07/11 12:08:38;;;;;;;11.40;6.47;;;;;;;33.34;30.98;100027.97;5050947;28;20044;-82
2021/07/11 12:11:06;;;;;;;22.92;7.78;;;;;;;33.18;32.24;100033.41;5050930;28;20021;-85